Time;durP1;ratioP1;P1;durP2;ratioP2;P2;SDS_P1;SDS_P2;PMS_P1;PMS_P2;Temp;Humidity;BMP_temperature;BMP_pressure;BME280_temperature;BME280_humidity;BME280_pressure;Samples;Min_cycle;Max_cycle;Signal;HPM_P1;HPM_P2
2021/12/05 00:19:48;;;;;;;37.28;17.70;;;;;;;;;;6402369;27;20106;-66
2021/12/05 00:22:53;;;;;;;34.78;18.05;;;;;;;;;;6420869;27;20045;-66
2021/12/05 00:25:59;;;;;;;32.60;16.70;;;;;;;;;;6421643;27;20121;-66
2021/12/05 00:29:12;;;;;;;41.40;20.13;;;;;;;;;;6421036;27;20051;-66
2021/12/05 00:32:20;;;;;;;33.22;18.30;;;;;;;;;;6401881;27;20045;-66
2021/12/05 00:36:01;;;;;;;35.55;18.35;;;;;;;;;;6420954;27;20057;-66
2021/12/05 00:39:34;;;;;;;37.40;19.03;;;;;;;;;;6421105;27;20042;-66
2021/12/05 00:53:24;;;;;;;39.38;20.00;;;;;;;;;;6355683;28;20063;-67
2021/12/05 00:56:48;;;;;;;39.95;19.88;;;;;;;;;;6347804;28;20508;-67
2021/12/05 01:07:11;;;;;;;40.17;21.80;;;;;;;;;;6352367;28;20066;-67
2021/12/05 01:10:29;;;;;;;35.83;21.30;;;;;;;;;;6366709;28;20108;-67
2021/12/05 01:13:46;;;;;;;41.15;21.83;;;;;;;;;;6360256;28;20039;-67
2021/12/05 01:16:49;;;;;;;40.15;20.67;;;;;;;;;;6353113;27;20039;-67
2021/12/05 01:19:53;;;;;;;41.85;22.85;;;;;;;;;;6353732;28;20595;-67
2021/12/05 01:23:02;;;;;;;41.60;22.05;;;;;;;;;;6351657;28;20413;-67
2021/12/05 01:26:10;;;;;;;38.22;21.13;;;;;;;;;;6352065;28;20063;-67
2021/12/05 01:29:30;;;;;;;40.30;22.02;;;;;;;;;;6348198;28;20157;-67
2021/12/05 01:32:47;;;;;;;39.03;21.75;;;;;;;;;;6355280;28;20399;-67
2021/12/05 01:36:06;;;;;;;41.30;21.88;;;;;;;;;;6353373;28;20063;-67
2021/12/05 01:39:29;;;;;;;39.40;22.40;;;;;;;;;;6353984;28;20052;-67
2021/12/05 01:43:06;;;;;;;44.60;22.75;;;;;;;;;;6353033;28;20403;-67
2021/12/05 01:46:34;;;;;;;;;;;;;;;;;;6352637;28;20048;-68
2021/12/05 02:30:24;;;;;;;48.20;25.52;;;;;;;;;;6332606;28;20055;-67
2021/12/05 02:33:47;;;;;;;44.03;25.73;;;;;;;;;;6331960;28;20035;-67
2021/12/05 02:40:24;;;;;;;41.65;24.05;;;;;;;;;;6332121;28;20486;-67
2021/12/05 02:43:30;;;;;;;49.93;26.63;;;;;;;;;;6332850;28;20048;-67
2021/12/05 02:46:39;;;;;;;45.13;24.90;;;;;;;;;;6346354;28;20047;-67
2021/12/05 02:49:46;;;;;;;44.95;25.80;;;;;;;;;;6345829;28;20047;-66
2021/12/05 02:52:52;;;;;;;46.17;26.35;;;;;;;;;;6347183;28;20055;-67
2021/12/05 02:55:55;;;;;;;;;;;;;;;;;;6345132;28;20048;-67
2021/12/05 02:59:06;;;;;;;43.60;22.48;;;;;;;;;;6346740;28;19931;-66
2021/12/05 03:02:14;;;;;;;44.38;24.38;;;;;;;;;;6347268;28;20048;-67
2021/12/05 03:05:23;;;;;;;44.85;24.42;;;;;;;;;;6345490;28;20055;-67
2021/12/05 03:08:26;;;;;;;43.63;24.92;;;;;;;;;;6345438;28;20040;-67
2021/12/05 03:11:31;;;;;;;47.03;24.67;;;;;;;;;;6339342;28;20059;-66
2021/12/05 03:14:36;;;;;;;41.17;24.23;;;;;;;;;;6326643;28;20059;-67
2021/12/05 03:17:40;;;;;;;;;;;;;;;;;;6336447;28;20047;-67
2021/12/05 03:20:44;;;;;;;39.75;23.50;;;;;;;;;;6314193;28;19920;-67
2021/12/05 03:23:52;;;;;;;43.80;25.05;;;;;;;;;;6324640;28;20052;-67
2021/12/05 03:26:55;;;;;;;45.63;26.10;;;;;;;;;;6341858;28;20039;-67
2021/12/05 03:30:00;;;;;;;43.58;25.30;;;;;;;;;;6332099;28;20044;-67
2021/12/05 03:33:07;;;;;;;45.53;25.65;;;;;;;;;;6326562;28;20047;-67
2021/12/05 03:36:15;;;;;;;44.13;25.50;;;;;;;;;;6344195;28;20051;-67
2021/12/05 03:39:20;;;;;;;43.05;26.02;;;;;;;;;;6319118;28;20058;-67
2021/12/05 03:42:24;;;;;;;45.53;26.50;;;;;;;;;;6332247;28;20040;-67
2021/12/05 03:45:31;;;;;;;45.47;24.65;;;;;;;;;;6343970;28;20132;-67
2021/12/05 03:48:50;;;;;;;42.42;24.23;;;;;;;;;;6342349;28;20075;-67
2021/12/05 03:51:56;;;;;;;44.78;25.10;;;;;;;;;;6328478;28;20391;-66
2021/12/05 03:55:02;;;;;;;43.25;24.67;;;;;;;;;;6323889;28;20691;-67
2021/12/05 03:58:06;;;;;;;42.75;24.05;;;;;;;;;;6319269;28;20117;-67
2021/12/05 04:01:13;;;;;;;40.55;23.15;;;;;;;;;;6329385;28;20052;-68
2021/12/05 04:04:18;;;;;;;45.58;25.52;;;;;;;;;;6318474;28;20042;-67
2021/12/05 04:07:22;;;;;;;42.80;23.75;;;;;;;;;;6318723;28;20123;-67
2021/12/05 04:10:28;;;;;;;45.47;23.65;;;;;;;;;;6329745;28;20051;-67
2021/12/05 04:13:32;;;;;;;43.88;24.67;;;;;;;;;;6318779;28;20067;-67
2021/12/05 04:16:37;;;;;;;43.65;23.52;;;;;;;;;;6319902;28;20044;-67
2021/12/05 04:19:41;;;;;;;41.42;24.08;;;;;;;;;;6321778;28;20082;-67
2021/12/05 04:22:44;;;;;;;43.92;24.38;;;;;;;;;;6326606;28;20048;-67
2021/12/05 04:25:50;;;;;;;44.40;23.98;;;;;;;;;;6319366;28;20048;-67
2021/12/05 04:28:57;;;;;;;41.95;23.85;;;;;;;;;;6322003;28;20032;-68
2021/12/05 04:32:05;;;;;;;44.33;24.23;;;;;;;;;;6329317;28;20048;-67
2021/12/05 04:35:09;;;;;;;43.28;24.95;;;;;;;;;;6317077;28;20052;-67
2021/12/05 04:38:13;;;;;;;43.53;24.27;;;;;;;;;;6319371;28;20048;-67
2021/12/05 04:41:16;;;;;;;42.33;23.98;;;;;;;;;;6330309;28;20058;-68
2021/12/05 04:44:24;;;;;;;43.47;24.05;;;;;;;;;;6318753;28;20052;-68
2021/12/05 04:47:32;;;;;;;46.13;25.27;;;;;;;;;;6317535;28;20059;-67
2021/12/05 04:50:39;;;;;;;49.10;25.05;;;;;;;;;;6329553;28;20060;-67
2021/12/05 04:53:43;;;;;;;42.92;24.88;;;;;;;;;;6319207;28;20223;-68
2021/12/05 04:56:48;;;;;;;45.35;25.10;;;;;;;;;;6316762;28;20060;-67
2021/12/05 04:59:55;;;;;;;45.80;24.88;;;;;;;;;;6318179;28;20044;-68
2021/12/05 05:03:00;;;;;;;41.20;24.27;;;;;;;;;;6337292;28;20048;-68
2021/12/05 05:06:07;;;;;;;47.93;26.37;;;;;;;;;;6328168;28;20058;-67
2021/12/05 05:09:11;;;;;;;45.28;25.15;;;;;;;;;;6338059;28;20350;-67
2021/12/05 05:12:14;;;;;;;45.45;25.92;;;;;;;;;;6328261;28;20044;-68
2021/12/05 05:15:22;;;;;;;49.08;25.98;;;;;;;;;;6319050;28;20056;-68
2021/12/05 05:18:33;;;;;;;50.83;26.65;;;;;;;;;;6316316;28;20102;-67
2021/12/05 05:21:41;;;;;;;46.92;25.08;;;;;;;;;;6325887;28;20806;-67
2021/12/05 05:28:39;;;;;;;49.83;24.50;;;;;;;;;;6319524;28;20063;-67
2021/12/05 05:48:51;;;;;;;46.22;26.35;;;;;;;;;;6293820;28;20064;-69
2021/12/05 05:51:56;;;;;;;47.63;25.98;;;;;;;;;;6324257;28;20051;-68
2021/12/05 05:55:00;;;;;;;49.30;25.98;;;;;;;;;;6346538;28;20414;-68
2021/12/05 05:58:07;;;;;;;50.22;26.67;;;;;;;;;;6347755;28;20051;-68
2021/12/05 06:01:19;;;;;;;50.30;27.83;;;;;;;;;;6323932;28;20055;-68
2021/12/05 06:04:22;;;;;;;46.13;26.17;;;;;;;;;;6323166;28;20101;-68
2021/12/05 06:07:28;;;;;;;49.92;26.95;;;;;;;;;;6323083;28;20052;-68
2021/12/05 06:10:32;;;;;;;51.17;26.83;;;;;;;;;;6321684;28;20127;-68
2021/12/05 06:13:36;;;;;;;52.20;26.48;;;;;;;;;;6322541;28;20104;-68
2021/12/05 06:16:39;;;;;;;49.25;27.10;;;;;;;;;;6321319;28;20055;-67
2021/12/05 06:19:45;;;;;;;51.85;27.80;;;;;;;;;;6320689;28;20052;-67
2021/12/05 06:22:51;;;;;;;57.65;28.58;;;;;;;;;;6320493;28;20118;-67
2021/12/05 06:25:57;;;;;;;58.05;26.48;;;;;;;;;;6322708;28;20483;-67
2021/12/05 06:29:07;;;;;;;56.78;29.35;;;;;;;;;;6322606;28;20055;-67
2021/12/05 06:42:46;;;;;;;63.40;30.30;;;;;;;;;;6320064;28;20059;-67
2021/12/05 06:46:02;;;;;;;58.55;27.80;;;;;;;;;;6322853;28;20106;-68
2021/12/05 06:49:05;;;;;;;;;;;;;;;;;;6341142;28;20063;-67
2021/12/05 06:52:09;;;;;;;61.85;28.80;;;;;;;;;;6347384;28;19919;-68
2021/12/05 06:55:16;;;;;;;63.90;29.92;;;;;;;;;;6323967;28;20047;-68
2021/12/05 06:58:19;;;;;;;61.45;29.60;;;;;;;;;;6319212;28;20052;-68
2021/12/05 07:01:23;;;;;;;65.85;29.20;;;;;;;;;;6321396;28;20051;-68
2021/12/05 07:07:43;;;;;;;64.00;30.13;;;;;;;;;;6318094;28;20052;-68
2021/12/05 07:10:54;;;;;;;57.53;27.30;;;;;;;;;;6320006;28;20063;-68
2021/12/05 07:20:48;;;;;;;70.43;30.55;;;;;;;;;;6340572;28;20044;-65
2021/12/05 07:23:57;;;;;;;59.40;28.48;;;;;;;;;;6343784;28;20048;-67
2021/12/05 07:40:45;;;;;;;67.90;30.27;;;;;;;;;;6345004;28;20073;-67
2021/12/05 07:43:50;;;;;;;64.03;29.90;;;;;;;;;;6325993;28;20056;-67
2021/12/05 07:46:53;;;;;;;66.82;29.08;;;;;;;;;;6320302;28;20043;-67
2021/12/05 07:49:58;;;;;;;69.10;31.30;;;;;;;;;;6317887;28;20060;-67
2021/12/05 07:53:07;;;;;;;68.20;30.65;;;;;;;;;;6317640;28;20047;-67
2021/12/05 07:56:18;;;;;;;68.95;31.60;;;;;;;;;;6318724;28;20051;-68
2021/12/05 07:59:36;;;;;;;66.45;29.65;;;;;;;;;;6318229;28;20059;-68
2021/12/05 08:16:08;;;;;;;68.45;30.20;;;;;;;;;;6342761;28;20036;-68
2021/12/05 08:19:18;;;;;;;69.13;30.73;;;;;;;;;;6343473;28;20043;-68
2021/12/05 08:22:24;;;;;;;66.83;29.73;;;;;;;;;;6344117;28;20504;-68
2021/12/05 08:25:29;;;;;;;68.47;28.53;;;;;;;;;;6342836;28;20055;-68
2021/12/05 08:28:52;;;;;;;65.38;30.08;;;;;;;;;;6342736;28;20482;-67
2021/12/05 08:32:15;;;;;;;71.53;31.10;;;;;;;;;;6343699;28;20043;-67
2021/12/05 08:35:40;;;;;;;70.80;29.85;;;;;;;;;;6343903;28;20047;-67
2021/12/05 09:26:25;;;;;;;76.72;32.75;;;;;;;;;;6346863;28;20058;-68
2021/12/05 09:40:13;;;;;;;69.32;30.27;;;;;;;;;;6330573;28;20056;-68
2021/12/05 10:01:26;;;;;;;73.38;29.60;;;;;;;;;;6347269;28;20086;-68
2021/12/05 10:07:18;;;;;;;81.07;33.10;;;;;;;;;;6347210;28;20044;-68
2021/12/05 10:10:32;;;;;;;86.82;31.95;;;;;;;;;;6345332;28;20051;-68
2021/12/05 10:13:55;;;;;;;86.15;32.80;;;;;;;;;;6345942;28;20047;-67
2021/12/05 10:17:25;;;;;;;71.30;32.10;;;;;;;;;;6345566;28;20047;-68
2021/12/05 10:26:16;;;;;;;80.85;32.95;;;;;;;;;;6345373;28;20048;-68
2021/12/05 10:34:24;;;;;;;68.68;28.92;;;;;;;;;;6325495;28;20044;-68
2021/12/05 10:37:27;;;;;;;74.38;29.05;;;;;;;;;;6328793;28;20036;-68
2021/12/05 10:40:36;;;;;;;65.50;27.25;;;;;;;;;;6334493;28;20062;-68
2021/12/05 10:43:40;;;;;;;67.10;28.38;;;;;;;;;;6344808;28;20048;-68
2021/12/05 10:46:50;;;;;;;78.47;31.42;;;;;;;;;;6344116;28;20063;-68
2021/12/05 10:49:53;;;;;;;71.95;29.33;;;;;;;;;;6344411;28;20059;-68
2021/12/05 10:53:17;;;;;;;64.80;28.52;;;;;;;;;;6345089;28;20124;-68
2021/12/05 10:56:22;;;;;;;70.07;28.02;;;;;;;;;;6344737;28;20061;-68
2021/12/05 10:59:31;;;;;;;83.28;35.42;;;;;;;;;;6344249;28;20105;-68
2021/12/05 11:02:36;;;;;;;63.65;28.60;;;;;;;;;;6324805;28;20052;-68
2021/12/05 11:05:41;;;;;;;59.17;26.98;;;;;;;;;;6319782;28;20145;-68
2021/12/05 11:08:44;;;;;;;52.58;25.08;;;;;;;;;;6318598;28;20060;-68
2021/12/05 11:11:48;;;;;;;50.47;24.50;;;;;;;;;;6318582;28;20048;-67
2021/12/05 11:14:52;;;;;;;58.10;25.05;;;;;;;;;;6319626;28;20052;-68
2021/12/05 11:17:59;;;;;;;51.10;25.33;;;;;;;;;;6319181;28;20040;-68
2021/12/05 11:21:22;;;;;;;54.90;25.90;;;;;;;;;;6317251;28;20052;-67
2021/12/05 11:24:27;;;;;;;51.72;24.95;;;;;;;;;;6316190;28;20052;-67
2021/12/05 11:27:32;;;;;;;52.58;25.58;;;;;;;;;;6314774;28;20059;-68
2021/12/05 11:30:36;;;;;;;50.65;24.55;;;;;;;;;;6314689;28;20119;-68
2021/12/05 11:33:46;;;;;;;51.40;25.40;;;;;;;;;;6314752;28;20044;-67
2021/12/05 11:36:56;;;;;;;48.85;24.35;;;;;;;;;;6316311;28;20040;-67
2021/12/05 11:40:05;;;;;;;54.65;25.90;;;;;;;;;;6318044;28;20055;-69
2021/12/05 11:43:12;;;;;;;50.55;24.80;;;;;;;;;;6317826;28;20048;-68
2021/12/05 11:46:17;;;;;;;48.05;23.98;;;;;;;;;;6319761;28;20048;-67
2021/12/05 11:49:23;;;;;;;47.55;22.85;;;;;;;;;;6318378;28;20109;-67
2021/12/05 11:52:26;;;;;;;51.75;24.58;;;;;;;;;;6318031;28;20056;-67
2021/12/05 11:55:31;;;;;;;49.45;23.30;;;;;;;;;;6319441;28;20441;-67
2021/12/05 11:58:34;;;;;;;49.20;24.77;;;;;;;;;;6317329;28;20047;-67
2021/12/05 12:01:40;;;;;;;49.78;23.60;;;;;;;;;;6317474;28;20052;-67
2021/12/05 12:04:50;;;;;;;44.85;22.20;;;;;;;;;;6318239;28;20048;-67
2021/12/05 12:08:02;;;;;;;50.13;23.08;;;;;;;;;;6318574;28;20048;-67
2021/12/05 12:11:06;;;;;;;49.97;24.55;;;;;;;;;;6317877;28;20094;-67
2021/12/05 12:14:09;;;;;;;50.33;24.85;;;;;;;;;;6316310;28;20048;-68
2021/12/05 12:17:16;;;;;;;51.08;23.40;;;;;;;;;;6316996;28;20051;-67
2021/12/05 12:20:22;;;;;;;55.28;25.30;;;;;;;;;;6316804;28;20047;-67
2021/12/05 12:23:26;;;;;;;52.03;24.05;;;;;;;;;;6315752;28;20082;-67
2021/12/05 12:26:30;;;;;;;57.47;25.75;;;;;;;;;;6317559;28;20573;-67
2021/12/05 12:29:34;;;;;;;61.22;26.25;;;;;;;;;;6318203;28;20044;-67
2021/12/05 12:32:39;;;;;;;50.70;23.77;;;;;;;;;;6317175;28;20044;-67
2021/12/05 12:35:45;;;;;;;60.47;26.70;;;;;;;;;;6316878;28;20060;-67
2021/12/05 12:38:48;;;;;;;53.58;25.67;;;;;;;;;;6317272;28;20051;-67
2021/12/05 12:42:02;;;;;;;48.30;24.05;;;;;;;;;;6317067;28;20402;-67
2021/12/05 12:45:14;;;;;;;55.20;25.55;;;;;;;;;;6316096;28;20083;-67
2021/12/05 12:48:18;;;;;;;57.55;25.27;;;;;;;;;;6316573;28;20052;-67
2021/12/05 12:51:31;;;;;;;57.88;25.35;;;;;;;;;;6315976;28;20517;-67
2021/12/05 12:54:36;;;;;;;51.25;24.38;;;;;;;;;;6315388;28;20052;-67
2021/12/05 12:57:40;;;;;;;48.63;23.05;;;;;;;;;;6315313;28;20040;-67
2021/12/05 13:00:47;;;;;;;46.10;21.48;;;;;;;;;;6315615;28;20048;-67
2021/12/05 13:04:27;;;;;;;46.35;22.52;;;;;;;;;;6317377;28;20051;-67
2021/12/05 13:10:59;;;;;;;39.90;19.63;;;;;;;;;;6279412;28;20060;-67
2021/12/05 13:14:04;;;;;;;42.35;19.40;;;;;;;;;;6316619;28;20055;-67
2021/12/05 13:17:09;;;;;;;39.25;19.60;;;;;;;;;;6317467;28;20051;-67
2021/12/05 13:20:13;;;;;;;40.72;20.73;;;;;;;;;;6315122;28;20059;-67
2021/12/05 13:23:19;;;;;;;40.00;20.23;;;;;;;;;;6314673;28;20052;-68
2021/12/05 13:26:28;;;;;;;38.53;18.48;;;;;;;;;;6315515;28;20048;-67
2021/12/05 13:29:31;;;;;;;40.28;20.08;;;;;;;;;;6316878;28;20066;-66
2021/12/05 13:32:35;;;;;;;42.28;21.27;;;;;;;;;;6315660;28;20048;-67
2021/12/05 13:35:40;;;;;;;44.17;20.83;;;;;;;;;;6316389;28;20056;-67
2021/12/05 13:38:44;;;;;;;48.85;22.23;;;;;;;;;;6315612;28;20052;-67
2021/12/05 13:41:59;;;;;;;56.35;23.30;;;;;;;;;;6314629;28;20043;-67
2021/12/05 13:45:14;;;;;;;61.08;24.83;;;;;;;;;;6315860;28;20052;-67
2021/12/05 13:48:19;;;;;;;67.40;25.85;;;;;;;;;;6315053;28;20063;-67
2021/12/05 13:51:23;;;;;;;92.40;37.33;;;;;;;;;;6315439;28;20147;-67
2021/12/05 13:54:31;;;;;;;70.03;30.95;;;;;;;;;;6315513;28;20166;-67
2021/12/05 13:57:34;;;;;;;70.22;27.00;;;;;;;;;;6319199;28;20051;-67
2021/12/05 14:00:40;;;;;;;74.22;26.90;;;;;;;;;;6321150;28;20075;-67
2021/12/05 14:04:00;;;;;;;61.13;24.90;;;;;;;;;;6320289;28;20051;-67
2021/12/05 14:07:04;;;;;;;59.25;24.85;;;;;;;;;;6319670;28;20048;-67
2021/12/05 14:10:09;;;;;;;65.55;26.02;;;;;;;;;;6319024;28;20051;-67
2021/12/05 14:13:12;;;;;;;85.68;28.27;;;;;;;;;;6319347;28;20097;-67
2021/12/05 14:16:15;;;;;;;75.95;28.27;;;;;;;;;;6318249;28;20075;-67
2021/12/05 14:19:21;;;;;;;81.03;29.27;;;;;;;;;;6320273;28;20056;-67
2021/12/05 14:22:24;;;;;;;;;;;;;;;;;;6321028;28;20048;-67
2021/12/05 14:25:32;;;;;;;74.38;27.30;;;;;;;;;;6319916;28;20010;-67
2021/12/05 14:28:35;;;;;;;98.20;30.17;;;;;;;;;;6319344;28;20051;-67
2021/12/05 14:31:39;;;;;;;90.57;30.35;;;;;;;;;;6319976;28;20174;-67
2021/12/05 14:34:43;;;;;;;83.38;29.13;;;;;;;;;;6320829;28;20044;-67
2021/12/05 14:37:47;;;;;;;83.40;28.60;;;;;;;;;;6319312;28;20123;-67
2021/12/05 14:40:52;;;;;;;107.72;31.10;;;;;;;;;;6319811;28;20055;-67
2021/12/05 14:43:56;;;;;;;89.30;29.80;;;;;;;;;;6319964;28;20040;-67
2021/12/05 14:47:01;;;;;;;78.80;27.70;;;;;;;;;;6319106;28;20067;-67
2021/12/05 14:50:05;;;;;;;81.32;28.85;;;;;;;;;;6319030;28;20505;-67
2021/12/05 14:53:11;;;;;;;80.65;26.77;;;;;;;;;;6319548;28;20055;-66
2021/12/05 14:56:28;;;;;;;79.32;28.70;;;;;;;;;;6318895;28;20165;-68
2021/12/05 14:59:37;;;;;;;82.88;27.73;;;;;;;;;;6317434;28;20105;-67
2021/12/05 15:02:43;;;;;;;85.97;29.33;;;;;;;;;;6317474;28;20186;-67
2021/12/05 15:05:48;;;;;;;85.28;28.67;;;;;;;;;;6319689;28;20050;-67
2021/12/05 15:08:51;;;;;;;96.03;31.30;;;;;;;;;;6319203;28;20552;-67
2021/12/05 15:11:58;;;;;;;98.03;31.85;;;;;;;;;;6318391;28;20052;-67
2021/12/05 15:15:03;;;;;;;84.22;29.42;;;;;;;;;;6318937;28;20036;-67
2021/12/05 15:18:06;;;;;;;76.37;28.87;;;;;;;;;;6319329;28;20449;-67
2021/12/05 15:21:09;;;;;;;79.07;29.23;;;;;;;;;;6318547;28;20036;-67
2021/12/05 15:24:13;;;;;;;82.38;30.02;;;;;;;;;;6318364;28;20077;-67
2021/12/05 15:27:18;;;;;;;;;;;;;;;;;;6319577;28;20395;-67
2021/12/05 15:30:24;;;;;;;82.50;29.13;;;;;;;;;;6318801;28;19920;-67
2021/12/05 15:33:28;;;;;;;83.47;30.83;;;;;;;;;;6316567;28;20127;-67
2021/12/05 15:36:34;;;;;;;84.07;29.88;;;;;;;;;;6318485;28;20067;-67
2021/12/05 15:39:38;;;;;;;88.15;29.13;;;;;;;;;;6318771;28;20044;-67
2021/12/05 15:42:41;;;;;;;90.88;31.35;;;;;;;;;;6316600;28;20044;-67
2021/12/05 15:45:45;;;;;;;90.28;31.15;;;;;;;;;;6316612;28;20048;-67
2021/12/05 15:48:50;;;;;;;83.57;30.10;;;;;;;;;;6318387;28;20567;-67
2021/12/05 15:51:59;;;;;;;93.43;32.78;;;;;;;;;;6316720;28;20059;-67
2021/12/05 15:55:07;;;;;;;75.43;28.42;;;;;;;;;;6317275;28;20051;-67
2021/12/05 15:58:13;;;;;;;85.53;30.23;;;;;;;;;;6317901;28;20075;-67
2021/12/05 16:01:24;;;;;;;94.68;32.03;;;;;;;;;;6318268;28;20059;-67
2021/12/05 16:04:31;;;;;;;90.32;31.75;;;;;;;;;;6317195;28;20059;-67
2021/12/05 16:07:34;;;;;;;104.38;31.20;;;;;;;;;;6317408;28;20054;-67
2021/12/05 16:10:38;;;;;;;95.63;30.67;;;;;;;;;;6316554;28;20086;-67
2021/12/05 16:13:42;;;;;;;105.30;31.48;;;;;;;;;;6316313;28;20105;-66
2021/12/05 16:16:46;;;;;;;84.88;29.73;;;;;;;;;;6316910;28;20415;-67
2021/12/05 16:20:08;;;;;;;106.07;33.20;;;;;;;;;;6315705;28;20112;-67
2021/12/05 16:23:13;;;;;;;89.78;28.77;;;;;;;;;;6318519;28;20136;-67
2021/12/05 16:26:22;;;;;;;88.78;29.80;;;;;;;;;;6317509;28;20048;-67
2021/12/05 16:29:27;;;;;;;86.40;29.40;;;;;;;;;;6317165;28;20044;-67
2021/12/05 16:32:38;;;;;;;75.50;28.65;;;;;;;;;;6317490;28;20047;-67
2021/12/05 16:35:44;;;;;;;83.65;28.52;;;;;;;;;;6317416;28;20524;-67
2021/12/05 16:38:50;;;;;;;79.03;28.98;;;;;;;;;;6316525;28;20118;-66
2021/12/05 16:41:54;;;;;;;89.30;29.58;;;;;;;;;;6315316;28;20458;-67
2021/12/05 16:44:58;;;;;;;77.07;28.58;;;;;;;;;;6317533;28;20046;-67
2021/12/05 16:48:06;;;;;;;81.68;27.33;;;;;;;;;;6315439;28;20062;-67
2021/12/05 16:51:16;;;;;;;92.47;29.50;;;;;;;;;;6316881;28;20044;-67
2021/12/05 16:54:21;;;;;;;76.45;27.27;;;;;;;;;;6316885;28;20052;-67
2021/12/05 16:57:29;;;;;;;75.27;26.80;;;;;;;;;;6316194;28;20474;-67
2021/12/05 17:00:32;;;;;;;66.10;26.85;;;;;;;;;;6316329;28;20052;-67
2021/12/05 17:03:43;;;;;;;72.72;27.42;;;;;;;;;;6316610;28;20044;-67
2021/12/05 17:06:47;;;;;;;78.32;25.75;;;;;;;;;;6317120;28;20390;-67
2021/12/05 17:09:50;;;;;;;72.18;26.48;;;;;;;;;;6316754;28;20044;-66
2021/12/05 17:12:54;;;;;;;64.15;25.90;;;;;;;;;;6316351;28;20127;-67
2021/12/05 17:15:59;;;;;;;64.22;25.50;;;;;;;;;;6316754;28;20047;-67
2021/12/05 17:19:07;;;;;;;64.13;25.50;;;;;;;;;;6315855;28;20044;-67
2021/12/05 17:22:12;;;;;;;65.78;25.98;;;;;;;;;;6315995;28;20052;-67
2021/12/05 17:25:25;;;;;;;63.55;24.98;;;;;;;;;;6315432;28;20040;-67
2021/12/05 17:28:34;;;;;;;61.30;25.00;;;;;;;;;;6315489;28;20051;-66
2021/12/05 17:31:38;;;;;;;73.18;26.90;;;;;;;;;;6320392;28;20036;-67
2021/12/05 17:34:44;;;;;;;67.15;25.00;;;;;;;;;;6320651;28;20506;-67
2021/12/05 17:37:47;;;;;;;64.88;26.20;;;;;;;;;;6319778;28;20044;-67
2021/12/05 17:41:06;;;;;;;63.33;26.48;;;;;;;;;;6321736;28;20048;-67
2021/12/05 17:44:09;;;;;;;62.97;25.88;;;;;;;;;;6320793;28;20182;-67
2021/12/05 17:47:15;;;;;;;74.88;27.23;;;;;;;;;;6320481;28;20583;-67
2021/12/05 17:50:20;;;;;;;70.13;25.38;;;;;;;;;;6321160;28;20044;-68
2021/12/05 17:53:28;;;;;;;62.88;27.02;;;;;;;;;;6321206;28;20459;-68
2021/12/05 17:56:39;;;;;;;61.88;26.08;;;;;;;;;;6320102;28;20131;-68
2021/12/05 17:59:59;;;;;;;71.43;27.00;;;;;;;;;;6320611;28;20075;-68
2021/12/05 18:03:02;;;;;;;64.60;24.23;;;;;;;;;;6318072;28;20062;-68
2021/12/05 18:06:09;;;;;;;64.72;25.63;;;;;;;;;;6318895;28;20482;-68
2021/12/05 18:09:14;;;;;;;63.53;25.10;;;;;;;;;;6318657;28;20121;-67
2021/12/05 18:12:21;;;;;;;62.85;24.77;;;;;;;;;;6320343;28;20040;-68
2021/12/05 18:15:28;;;;;;;69.80;25.95;;;;;;;;;;6320697;28;20048;-68
2021/12/05 18:18:34;;;;;;;59.92;24.67;;;;;;;;;;6320071;28;20048;-68
2021/12/05 18:21:41;;;;;;;64.28;25.38;;;;;;;;;;6319839;28;20059;-69
2021/12/05 18:24:44;;;;;;;61.90;25.42;;;;;;;;;;6320830;28;20054;-67
2021/12/05 18:27:50;;;;;;;;;;;;;;;;;;6319773;28;20072;-67
2021/12/05 18:30:55;;;;;;;51.15;22.40;;;;;;;;;;6319436;28;19920;-67
2021/12/05 18:34:01;;;;;;;55.83;24.42;;;;;;;;;;6319779;28;20547;-67
2021/12/05 18:37:06;;;;;;;59.33;25.20;;;;;;;;;;6320298;28;20456;-67
2021/12/05 18:40:12;;;;;;;56.67;24.42;;;;;;;;;;6319123;28;20471;-68
2021/12/05 18:43:16;;;;;;;57.85;23.48;;;;;;;;;;6319145;28;20044;-67
2021/12/05 18:46:22;;;;;;;53.22;23.17;;;;;;;;;;6318465;28;20101;-67
2021/12/05 18:49:26;;;;;;;54.28;22.52;;;;;;;;;;6318264;28;20060;-67
2021/12/05 18:52:34;;;;;;;57.13;21.95;;;;;;;;;;6318770;28;20476;-68
2021/12/05 18:55:37;;;;;;;52.10;22.30;;;;;;;;;;6319340;28;20043;-67
2021/12/05 18:58:42;;;;;;;48.90;21.58;;;;;;;;;;6318441;28;20048;-67
2021/12/05 19:05:09;;;;;;;47.83;21.88;;;;;;;;;;6317410;28;20044;-67
2021/12/05 19:08:31;;;;;;;53.60;22.10;;;;;;;;;;6318287;28;20052;-67
2021/12/05 19:11:43;;;;;;;51.55;22.23;;;;;;;;;;6318192;28;20044;-66
2021/12/05 19:14:48;;;;;;;53.90;21.60;;;;;;;;;;6318343;28;20427;-67
2021/12/05 19:17:52;;;;;;;47.85;20.48;;;;;;;;;;6317286;28;20169;-67
2021/12/05 19:20:55;;;;;;;48.33;20.02;;;;;;;;;;6317394;28;20040;-67
2021/12/05 19:24:01;;;;;;;44.97;19.95;;;;;;;;;;6316541;28;20052;-66
2021/12/05 19:27:07;;;;;;;43.10;18.67;;;;;;;;;;6318531;28;20048;-66
2021/12/05 19:30:12;;;;;;;34.65;16.73;;;;;;;;;;6318476;28;20515;-67
2021/12/05 19:33:16;;;;;;;32.50;15.80;;;;;;;;;;6318101;28;20478;-66
2021/12/05 19:36:21;;;;;;;37.45;17.13;;;;;;;;;;6317768;28;20315;-66
2021/12/05 19:39:29;;;;;;;31.65;15.85;;;;;;;;;;6318259;28;20040;-67
2021/12/05 19:42:32;;;;;;;31.95;15.80;;;;;;;;;;6318584;28;20058;-66
2021/12/05 19:45:35;;;;;;;30.95;16.38;;;;;;;;;;6318342;28;20101;-66
2021/12/05 19:48:39;;;;;;;31.58;15.32;;;;;;;;;;6317543;28;20102;-67
2021/12/05 19:51:44;;;;;;;30.63;15.18;;;;;;;;;;6318179;28;20101;-67
2021/12/05 19:54:49;;;;;;;31.35;15.70;;;;;;;;;;6316445;28;20051;-66
2021/12/05 19:57:55;;;;;;;35.40;15.52;;;;;;;;;;6316038;28;20051;-66
2021/12/05 20:01:01;;;;;;;35.13;17.65;;;;;;;;;;6316494;28;20525;-66
2021/12/05 20:04:06;;;;;;;36.60;16.17;;;;;;;;;;6318193;28;20048;-66
2021/12/05 20:07:09;;;;;;;31.25;15.13;;;;;;;;;;6316296;28;20623;-66
2021/12/05 20:10:17;;;;;;;33.40;16.83;;;;;;;;;;6317248;28;20048;-66
2021/12/05 20:13:20;;;;;;;31.48;16.25;;;;;;;;;;6317528;28;20047;-66
2021/12/05 20:16:23;;;;;;;29.45;15.48;;;;;;;;;;6317785;28;20044;-66
2021/12/05 20:19:26;;;;;;;33.50;15.85;;;;;;;;;;6316755;28;20047;-66
2021/12/05 20:22:32;;;;;;;30.88;14.88;;;;;;;;;;6316325;28;20181;-66
2021/12/05 20:25:36;;;;;;;34.50;16.20;;;;;;;;;;6316589;28;20044;-67
2021/12/05 20:28:39;;;;;;;35.58;17.48;;;;;;;;;;6317140;28;20070;-66
2021/12/05 20:31:42;;;;;;;34.58;16.00;;;;;;;;;;6316787;28;20060;-67
2021/12/05 20:34:45;;;;;;;36.90;17.67;;;;;;;;;;6317326;28;20519;-66
2021/12/05 20:37:56;;;;;;;40.28;17.83;;;;;;;;;;6316592;28;20048;-66
2021/12/05 20:41:00;;;;;;;34.95;17.40;;;;;;;;;;6316843;28;20445;-67
2021/12/05 20:44:06;;;;;;;38.85;17.48;;;;;;;;;;6315695;28;20154;-67
2021/12/05 20:47:09;;;;;;;39.70;18.42;;;;;;;;;;6317313;28;20048;-67
2021/12/05 20:50:12;;;;;;;39.42;17.80;;;;;;;;;;6317193;28;20040;-67
2021/12/05 20:53:18;;;;;;;39.97;17.85;;;;;;;;;;6315818;28;20048;-67
2021/12/05 20:56:23;;;;;;;40.53;18.02;;;;;;;;;;6317251;28;20414;-67
2021/12/05 20:59:26;;;;;;;35.97;18.65;;;;;;;;;;6317175;28;20048;-67
2021/12/05 21:02:29;;;;;;;36.10;18.10;;;;;;;;;;6316188;28;20050;-67
2021/12/05 21:05:34;;;;;;;37.42;18.33;;;;;;;;;;6320426;28;20051;-67
2021/12/05 21:08:37;;;;;;;40.20;17.92;;;;;;;;;;6322342;28;20040;-67
2021/12/05 21:11:43;;;;;;;41.30;18.88;;;;;;;;;;6320073;28;20063;-66
2021/12/05 21:14:45;;;;;;;;;;;;;;;;;;6322307;28;20048;-67
2021/12/05 21:17:49;;;;;;;42.65;19.92;;;;;;;;;;6322044;28;19927;-66
2021/12/05 21:20:56;;;;;;;43.22;18.92;;;;;;;;;;6320508;28;20401;-66
2021/12/05 21:24:02;;;;;;;41.00;19.48;;;;;;;;;;6321025;28;20069;-66
2021/12/05 21:27:07;;;;;;;41.88;18.60;;;;;;;;;;6321437;28;20482;-66
2021/12/05 21:30:12;;;;;;;40.92;19.83;;;;;;;;;;6321869;28;20037;-66
2021/12/05 21:33:16;;;;;;;40.67;20.10;;;;;;;;;;6319524;28;20555;-66
2021/12/05 21:36:20;;;;;;;41.33;18.88;;;;;;;;;;6321256;28;20490;-67
2021/12/05 21:39:23;;;;;;;41.03;19.88;;;;;;;;;;6321472;28;20546;-67
2021/12/05 21:42:30;;;;;;;38.53;18.52;;;;;;;;;;6321237;28;20487;-66
2021/12/05 21:45:33;;;;;;;45.30;19.98;;;;;;;;;;6321365;28;20044;-67
2021/12/05 21:48:37;;;;;;;42.08;20.00;;;;;;;;;;6320835;28;20082;-67
2021/12/05 21:51:42;;;;;;;40.08;18.63;;;;;;;;;;6320235;28;20058;-67
2021/12/05 21:54:48;;;;;;;42.60;18.88;;;;;;;;;;6319083;28;20052;-67
2021/12/05 21:57:52;;;;;;;42.38;20.00;;;;;;;;;;6319533;28;20052;-67
2021/12/05 22:00:56;;;;;;;40.80;20.17;;;;;;;;;;6319847;28;20052;-67
2021/12/05 22:03:59;;;;;;;42.65;21.85;;;;;;;;;;6319225;28;20510;-66
2021/12/05 22:07:03;;;;;;;41.45;20.55;;;;;;;;;;6319303;28;20051;-66
2021/12/05 22:10:10;;;;;;;47.80;21.15;;;;;;;;;;6319507;28;20196;-66
2021/12/05 22:13:14;;;;;;;44.42;19.63;;;;;;;;;;6320847;28;20055;-67
2021/12/05 22:16:19;;;;;;;43.25;21.63;;;;;;;;;;6318737;28;20042;-67